createdAt,value
2023-02-17T00:01:12.092Z,18.80
2023-02-17T00:03:40.008Z,18.57
2023-02-17T00:06:10.769Z,18.13
2023-02-17T00:08:39.324Z,19.97
2023-02-17T00:11:08.166Z,18.90
2023-02-17T00:13:36.070Z,20.00
2023-02-17T00:16:08.180Z,18.40
2023-02-17T00:18:36.544Z,19.23
2023-02-17T00:21:15.706Z,18.80
2023-02-17T00:23:43.582Z,19.23
2023-02-17T00:26:11.869Z,18.83
2023-02-17T00:28:39.754Z,20.53
2023-02-17T00:31:09.148Z,19.70
2023-02-17T00:33:37.106Z,19.70
2023-02-17T00:36:07.514Z,19.73
2023-02-17T00:38:36.937Z,20.63
2023-02-17T00:41:05.089Z,22.27
2023-02-17T00:43:33.203Z,23.53
2023-02-17T00:46:03.536Z,21.47
2023-02-17T00:48:31.745Z,21.27
2023-02-17T00:51:00.045Z,20.07
2023-02-17T00:53:27.858Z,20.70
2023-02-17T00:55:57.401Z,20.73
2023-02-17T00:58:26.223Z,20.80
2023-02-17T01:00:54.396Z,22.13
2023-02-17T01:03:22.378Z,20.53
2023-02-17T01:05:51.496Z,21.83
2023-02-17T01:08:19.999Z,21.50
2023-02-17T01:10:52.399Z,22.27
2023-02-17T01:13:21.830Z,21.57
2023-02-17T01:15:51.819Z,23.03
2023-02-17T01:18:21.765Z,21.50
2023-02-17T01:20:49.815Z,23.27
2023-02-17T01:23:17.638Z,21.00
2023-02-17T01:25:47.748Z,21.57
2023-02-17T01:28:17.535Z,20.80
2023-02-17T01:30:47.239Z,24.20
2023-02-17T01:33:15.864Z,21.30
2023-02-17T01:35:43.904Z,21.40
2023-02-17T01:38:11.804Z,22.10
2023-02-17T01:40:47.823Z,21.40
2023-02-17T01:43:17.656Z,21.30
2023-02-17T01:45:52.354Z,21.70
2023-02-17T01:48:22.953Z,23.23
2023-02-17T01:50:54.295Z,20.77
2023-02-17T01:53:26.181Z,22.10
2023-02-17T01:55:54.934Z,20.90
2023-02-17T01:58:26.009Z,22.67
2023-02-17T02:00:58.464Z,21.43
2023-02-17T02:03:28.319Z,22.07
2023-02-17T02:05:57.020Z,22.53
2023-02-17T02:08:25.181Z,20.20
2023-02-17T02:10:53.210Z,21.90
2023-02-17T02:13:21.109Z,23.40
2023-02-17T02:15:55.171Z,22.77
2023-02-17T02:18:39.314Z,20.73
2023-02-17T02:21:31.344Z,21.47
2023-02-17T02:24:31.420Z,22.40
2023-02-17T02:27:35.506Z,21.90
2023-02-17T02:30:33.540Z,24.67
2023-02-17T02:33:09.165Z,22.60
2023-02-17T02:35:46.417Z,24.13
2023-02-17T02:38:19.270Z,23.07
2023-02-17T02:40:51.041Z,24.43
2023-02-17T02:43:19.608Z,26.60
2023-02-17T02:45:48.337Z,22.67
2023-02-17T02:48:17.516Z,23.33
2023-02-17T02:51:04.900Z,23.40
2023-02-17T02:53:53.670Z,23.27
2023-02-17T02:56:34.090Z,24.77
2023-02-17T02:59:14.038Z,23.30
2023-02-17T03:01:52.657Z,24.50
2023-02-17T03:04:31.831Z,24.63
2023-02-17T03:07:04.597Z,24.40
2023-02-17T03:09:33.015Z,23.83
2023-02-17T03:12:00.961Z,24.60
2023-02-17T03:14:30.067Z,23.77
2023-02-17T03:16:59.006Z,24.93
2023-02-17T03:19:29.875Z,25.30
2023-02-17T03:22:09.043Z,24.60
2023-02-17T03:24:37.100Z,25.00
2023-02-17T03:27:05.094Z,24.07
2023-02-17T03:29:32.936Z,24.30
2023-02-17T03:32:01.522Z,24.57
2023-02-17T03:34:30.893Z,24.30
2023-02-17T03:36:58.939Z,24.83
2023-02-17T03:39:27.478Z,25.00
2023-02-17T03:41:55.285Z,23.80
2023-02-17T03:44:23.079Z,25.30
2023-02-17T03:46:51.108Z,25.70
2023-02-17T03:49:19.190Z,24.43
2023-02-17T03:51:48.550Z,25.77
2023-02-17T03:54:16.418Z,25.33
2023-02-17T03:56:44.193Z,25.70
2023-02-17T03:59:12.073Z,26.40
2023-02-17T04:01:40.164Z,25.63
2023-02-17T04:04:08.160Z,26.47
2023-02-17T04:06:35.973Z,25.63
2023-02-17T04:09:05.565Z,25.53
2023-02-17T04:11:33.597Z,25.00
2023-02-17T04:14:01.494Z,26.87
2023-02-17T04:16:29.380Z,25.60
2023-02-17T04:18:57.466Z,27.20
2023-02-17T04:21:25.338Z,27.63
2023-02-17T04:23:54.524Z,28.53
2023-02-17T04:26:23.876Z,25.00
2023-02-17T04:28:51.675Z,25.90
2023-02-17T04:31:19.676Z,26.83
2023-02-17T04:33:47.718Z,25.63
2023-02-17T04:36:16.814Z,26.33
2023-02-17T04:38:44.781Z,25.83
2023-02-17T04:41:12.821Z,26.03
2023-02-17T04:43:41.970Z,25.37
2023-02-17T04:46:11.849Z,25.23
2023-02-17T04:48:40.025Z,25.50
2023-02-17T04:51:08.003Z,24.53
2023-02-17T04:53:35.958Z,26.33
2023-02-17T04:56:04.200Z,23.20
2023-02-17T04:58:32.892Z,24.83
2023-02-17T05:01:02.074Z,24.13
2023-02-17T05:03:30.009Z,25.07
2023-02-17T05:05:58.604Z,24.67
2023-02-17T05:08:26.529Z,25.73
2023-02-17T05:10:54.385Z,24.80
2023-02-17T05:13:22.511Z,24.53
2023-02-17T05:15:50.597Z,23.83
2023-02-17T05:18:20.061Z,23.90
2023-02-17T05:20:47.882Z,25.17
2023-02-17T05:23:15.775Z,25.10
2023-02-17T05:25:43.535Z,25.27
2023-02-17T05:28:11.845Z,25.53
2023-02-17T05:30:39.664Z,23.83
2023-02-17T05:33:07.528Z,24.90
2023-02-17T05:35:37.619Z,24.97
2023-02-17T05:38:05.433Z,26.17
2023-02-17T05:40:33.407Z,23.60
2023-02-17T05:43:01.369Z,24.10
2023-02-17T05:45:29.473Z,23.43
2023-02-17T05:47:57.504Z,24.27
2023-02-17T05:50:25.593Z,24.23
2023-02-17T05:52:55.186Z,24.93
2023-02-17T05:55:23.388Z,23.90
2023-02-17T05:57:51.184Z,22.77
2023-02-17T06:00:19.369Z,26.03
2023-02-17T06:02:47.609Z,24.50
2023-02-17T06:05:15.655Z,25.53
2023-02-17T06:07:43.666Z,23.70
2023-02-17T06:10:13.216Z,22.90
2023-02-17T06:12:41.084Z,23.97
2023-02-17T06:15:09.351Z,24.20
2023-02-17T06:17:37.302Z,22.60
2023-02-17T06:20:06.171Z,23.03
2023-02-17T06:22:34.107Z,23.50
2023-02-17T06:25:02.209Z,23.70
2023-02-17T06:27:31.436Z,23.57
2023-02-17T06:29:59.332Z,22.40
2023-02-17T06:32:27.502Z,22.10
2023-02-17T06:34:55.436Z,20.40
2023-02-17T06:37:23.498Z,22.13
2023-02-17T06:39:51.468Z,22.33
2023-02-17T06:42:19.263Z,22.63
2023-02-17T06:44:48.633Z,22.33
2023-02-17T06:47:20.010Z,21.13
2023-02-17T06:49:47.764Z,21.83
2023-02-17T06:52:15.677Z,21.67
2023-02-17T06:54:43.457Z,20.63
2023-02-17T06:57:11.302Z,20.60
2023-02-17T06:59:39.297Z,19.73
2023-02-17T07:02:12.316Z,19.60
2023-02-17T07:04:40.544Z,19.47
2023-02-17T07:07:08.546Z,19.53
2023-02-17T07:09:36.374Z,18.77
2023-02-17T07:12:04.547Z,19.13
2023-02-17T07:14:34.312Z,18.67
2023-02-17T07:17:02.704Z,18.90
2023-02-17T07:19:32.158Z,16.43
2023-02-17T07:22:00.110Z,17.53
2023-02-17T07:24:28.156Z,17.43
2023-02-17T07:26:56.265Z,17.27
2023-02-17T07:29:24.483Z,18.07
2023-02-17T07:31:52.481Z,18.13
2023-02-17T07:34:20.420Z,18.33
2023-02-17T07:36:49.797Z,17.70
2023-02-17T07:39:17.880Z,27.50
2023-02-17T07:41:45.682Z,22.97
2023-02-17T07:44:13.424Z,17.33
2023-02-17T07:46:41.462Z,16.83
2023-02-17T07:49:09.585Z,16.90
2023-02-17T07:51:37.344Z,17.97
2023-02-17T07:54:06.872Z,17.63
2023-02-17T07:56:34.663Z,15.70
2023-02-17T07:59:02.544Z,15.13
2023-02-17T08:01:30.436Z,16.27
2023-02-17T08:03:58.541Z,14.93
2023-02-17T08:06:26.867Z,16.03
2023-02-17T08:09:13.250Z,15.50
2023-02-17T08:12:01.509Z,15.50
2023-02-17T08:14:31.373Z,15.03
2023-02-17T08:16:59.283Z,15.17
2023-02-17T08:19:33.823Z,14.60
2023-02-17T08:22:10.830Z,13.93
2023-02-17T08:24:38.613Z,14.97
2023-02-17T08:27:07.812Z,13.63
2023-02-17T08:29:37.398Z,14.03
2023-02-17T08:32:05.756Z,15.07
2023-02-17T08:34:34.619Z,15.27
2023-02-17T08:37:02.659Z,14.93
2023-02-17T08:39:33.936Z,14.47
2023-02-17T08:42:02.405Z,13.93
2023-02-17T08:44:31.808Z,14.50
2023-02-17T08:46:59.543Z,15.10
2023-02-17T08:49:30.123Z,15.77
2023-02-17T08:51:58.166Z,14.20
2023-02-17T08:54:26.159Z,14.30
2023-02-17T08:56:54.431Z,15.23
2023-02-17T08:59:22.418Z,14.97
2023-02-17T09:01:52.157Z,16.17
2023-02-17T09:04:20.148Z,15.37
2023-02-17T09:06:50.671Z,15.13
2023-02-17T09:09:22.402Z,15.63
2023-02-17T09:11:50.819Z,14.30
2023-02-17T09:14:18.599Z,14.53
2023-02-17T09:16:46.403Z,19.00
2023-02-17T09:19:15.729Z,13.83
2023-02-17T09:21:43.742Z,14.73
2023-02-17T09:24:11.726Z,15.77
2023-02-17T09:26:39.486Z,14.20
2023-02-17T09:29:08.362Z,14.50
2023-02-17T09:31:37.747Z,14.87
2023-02-17T09:34:06.648Z,13.97
2023-02-17T09:36:41.337Z,13.93
2023-02-17T09:39:12.396Z,13.63
2023-02-17T09:41:45.000Z,14.30
2023-02-17T09:44:20.613Z,14.93
2023-02-17T09:47:02.241Z,13.97
2023-02-17T09:49:37.841Z,14.43
2023-02-17T09:52:13.054Z,14.53
2023-02-17T09:54:50.626Z,13.03
2023-02-17T09:57:23.289Z,14.37
2023-02-17T09:59:56.597Z,13.50
2023-02-17T10:02:30.853Z,15.23
2023-02-17T10:05:04.183Z,14.60
2023-02-17T10:07:38.125Z,14.80
2023-02-17T10:10:11.509Z,14.17
2023-02-17T10:12:44.634Z,15.80
2023-02-17T10:15:18.140Z,16.10
2023-02-17T10:17:51.843Z,14.57
2023-02-17T10:20:24.677Z,16.47
2023-02-17T10:22:58.889Z,14.97
2023-02-17T10:25:42.623Z,14.00
2023-02-17T10:28:16.474Z,15.00
2023-02-17T10:30:56.176Z,13.97
2023-02-17T10:33:30.475Z,15.97
2023-02-17T10:36:09.485Z,15.43
2023-02-17T10:38:49.865Z,15.57
2023-02-17T10:41:22.476Z,14.67
2023-02-17T10:43:51.441Z,14.97
2023-02-17T10:46:23.136Z,16.13
2023-02-17T10:48:53.680Z,15.97
2023-02-17T10:51:24.561Z,16.07
2023-02-17T10:53:58.798Z,16.13
2023-02-17T10:56:33.766Z,15.43
2023-02-17T10:59:06.572Z,15.77
2023-02-17T11:01:35.510Z,16.10
2023-02-17T11:04:05.867Z,15.90
2023-02-17T11:06:38.433Z,16.87
2023-02-17T11:09:18.281Z,18.23
2023-02-17T11:11:54.130Z,14.90
2023-02-17T11:14:27.191Z,17.17
2023-02-17T11:16:59.435Z,14.57
2023-02-17T11:19:29.872Z,14.57
2023-02-17T11:21:59.741Z,13.77
2023-02-17T11:24:31.582Z,13.60
2023-02-17T11:27:02.231Z,13.57
2023-02-17T11:29:30.691Z,14.17
2023-02-17T11:32:01.277Z,13.00
2023-02-17T11:34:32.990Z,14.17
2023-02-17T11:37:03.490Z,14.30
2023-02-17T11:39:39.834Z,12.93
2023-02-17T11:42:16.643Z,12.73
2023-02-17T11:44:44.654Z,13.07
2023-02-17T11:47:24.072Z,12.67
2023-02-17T11:50:06.695Z,13.17
2023-02-17T11:52:50.451Z,13.43
2023-02-17T11:55:28.371Z,11.53
2023-02-17T11:58:14.624Z,11.37
2023-02-17T12:00:49.827Z,12.13
2023-02-17T12:03:50.282Z,11.63
2023-02-17T12:06:24.056Z,10.73
2023-02-17T12:09:10.936Z,9.53
2023-02-17T12:11:50.338Z,9.63
2023-02-17T12:14:41.128Z,10.17
2023-02-17T12:17:18.956Z,9.63
2023-02-17T12:19:55.320Z,9.50
2023-02-17T12:22:30.724Z,8.87
2023-02-17T12:25:16.778Z,9.60
2023-02-17T12:27:58.103Z,9.03
2023-02-17T12:30:40.354Z,8.87
2023-02-17T12:33:22.889Z,8.73
2023-02-17T12:35:53.264Z,7.80
2023-02-17T12:38:26.778Z,8.37
2023-02-17T12:40:59.569Z,7.67
2023-02-17T12:43:33.622Z,7.83
2023-02-17T12:46:06.804Z,10.13
2023-02-17T12:48:39.274Z,8.23
2023-02-17T12:51:13.019Z,7.67
2023-02-17T12:53:46.278Z,7.37
2023-02-17T12:56:41.005Z,6.97
2023-02-17T12:59:16.920Z,7.80
2023-02-17T13:01:54.180Z,6.60
2023-02-17T13:04:26.298Z,7.20
2023-02-17T13:07:08.116Z,6.23
2023-02-17T13:09:38.306Z,6.63
2023-02-17T13:12:19.723Z,6.07
2023-02-17T13:14:51.808Z,6.23
2023-02-17T13:17:36.334Z,6.43
2023-02-17T13:20:25.659Z,7.17
2023-02-17T13:23:05.639Z,6.17
2023-02-17T13:25:37.661Z,5.97
2023-02-17T13:28:34.785Z,6.97
2023-02-17T13:31:17.654Z,5.67
2023-02-17T13:33:49.517Z,5.97
2023-02-17T13:36:22.375Z,5.93
2023-02-17T13:38:56.845Z,5.73
2023-02-17T13:41:24.984Z,6.40
2023-02-17T13:43:52.944Z,5.03
2023-02-17T13:46:26.216Z,5.87
2023-02-17T13:49:03.114Z,5.93
2023-02-17T13:51:35.357Z,6.67
2023-02-17T13:54:08.087Z,5.00
2023-02-17T13:56:35.991Z,6.27
2023-02-17T13:59:12.856Z,5.17
2023-02-17T14:01:43.963Z,5.20
2023-02-17T14:04:21.992Z,5.10
2023-02-17T14:06:50.643Z,4.67
2023-02-17T14:09:23.984Z,4.30
2023-02-17T14:11:53.185Z,4.00
2023-02-17T14:14:23.012Z,4.60
2023-02-17T14:17:01.778Z,4.37
2023-02-17T14:19:30.718Z,4.33
2023-02-17T14:22:02.404Z,4.07
2023-02-17T14:24:33.091Z,4.43
2023-02-17T14:27:03.240Z,4.83
2023-02-17T14:29:42.069Z,4.50
2023-02-17T14:32:29.985Z,4.33
2023-02-17T14:35:09.492Z,4.67
2023-02-17T14:37:37.411Z,4.27
2023-02-17T14:40:07.992Z,4.37
2023-02-17T14:42:35.941Z,4.43
2023-02-17T14:45:03.855Z,6.30
2023-02-17T14:47:33.364Z,5.10
2023-02-17T14:50:01.089Z,4.70
2023-02-17T14:52:29.678Z,4.83
2023-02-17T14:55:00.912Z,4.33
2023-02-17T14:57:29.603Z,5.27
2023-02-17T14:59:57.800Z,6.50
2023-02-17T15:02:25.989Z,5.60
2023-02-17T15:04:55.319Z,5.90
2023-02-17T15:07:24.208Z,7.60
2023-02-17T15:09:51.993Z,6.73
2023-02-17T15:12:22.203Z,7.90
2023-02-17T15:14:50.058Z,6.30
2023-02-17T15:17:18.021Z,8.10
2023-02-17T15:19:45.838Z,7.07
2023-02-17T15:22:15.493Z,9.73
2023-02-17T15:24:43.395Z,7.50
2023-02-17T15:27:15.395Z,7.90
2023-02-17T15:29:43.348Z,7.17
2023-02-17T15:32:18.945Z,8.30
2023-02-17T15:34:47.094Z,7.43
2023-02-17T15:37:16.567Z,7.77
2023-02-17T15:39:44.439Z,8.10
2023-02-17T15:42:14.757Z,8.90
2023-02-17T15:44:45.191Z,9.43
2023-02-17T15:47:17.103Z,9.17
2023-02-17T15:49:45.309Z,9.07
2023-02-17T15:52:14.226Z,8.77
2023-02-17T15:54:44.318Z,9.77
2023-02-17T15:57:21.821Z,9.30
2023-02-17T15:59:49.718Z,8.23
2023-02-17T16:02:21.436Z,9.90
2023-02-17T16:04:49.559Z,9.17
2023-02-17T16:07:17.485Z,9.83
2023-02-17T16:09:46.714Z,8.30
2023-02-17T16:12:26.403Z,8.60
2023-02-17T16:14:54.557Z,8.67
2023-02-17T16:17:22.354Z,9.87
2023-02-17T16:19:50.260Z,8.73
2023-02-17T16:22:18.152Z,9.57
2023-02-17T16:24:47.461Z,8.73
2023-02-17T16:27:17.388Z,8.73
2023-02-17T16:29:45.468Z,10.13
2023-02-17T16:32:14.315Z,8.37
2023-02-17T16:34:42.824Z,8.20
2023-02-17T16:37:17.075Z,8.80
2023-02-17T16:39:45.739Z,8.27
2023-02-17T16:42:15.842Z,8.27
2023-02-17T16:44:44.230Z,8.37
2023-02-17T16:47:20.740Z,7.40
2023-02-17T16:49:50.328Z,7.60
2023-02-17T16:52:24.989Z,7.37
2023-02-17T16:54:53.167Z,6.47
2023-02-17T16:57:23.339Z,6.60
2023-02-17T16:59:51.215Z,6.37
2023-02-17T17:02:21.528Z,6.30
2023-02-17T17:04:49.622Z,5.90
2023-02-17T17:07:18.079Z,5.87
2023-02-17T17:10:06.722Z,5.77
2023-02-17T17:12:35.861Z,5.50
2023-02-17T17:15:04.042Z,4.43
2023-02-17T17:17:37.442Z,4.40
2023-02-17T17:20:05.808Z,5.17
2023-02-17T17:22:33.530Z,4.97
2023-02-17T17:25:01.306Z,5.03
2023-02-17T17:27:29.076Z,5.37
2023-02-17T17:29:58.283Z,5.73
2023-02-17T17:32:26.421Z,8.37
2023-02-17T17:34:55.195Z,4.80
2023-02-17T17:37:23.037Z,5.10
2023-02-17T17:39:50.963Z,4.73
2023-02-17T17:42:18.849Z,5.03
2023-02-17T17:44:46.725Z,4.60
2023-02-17T17:47:29.397Z,4.20
2023-02-17T17:49:58.001Z,4.77
2023-02-17T17:52:25.924Z,4.43
2023-02-17T17:54:53.740Z,4.30
2023-02-17T17:57:22.498Z,3.87
2023-02-17T17:59:50.258Z,4.10
2023-02-17T18:02:19.535Z,3.60
2023-02-17T18:04:47.802Z,3.60
2023-02-17T18:07:15.965Z,3.67
2023-02-17T18:09:44.134Z,3.40
2023-02-17T18:12:16.285Z,7.07
2023-02-17T18:14:45.285Z,4.43
2023-02-17T18:17:18.109Z,3.50
2023-02-17T18:19:48.761Z,3.27
2023-02-17T18:22:17.724Z,4.13
2023-02-17T18:24:47.475Z,3.97
2023-02-17T18:27:15.911Z,3.50
2023-02-17T18:29:44.838Z,4.00
2023-02-17T18:32:12.852Z,4.27
2023-02-17T18:34:40.556Z,4.23
2023-02-17T18:37:09.881Z,4.37
2023-02-17T18:39:37.603Z,4.50
2023-02-17T18:42:06.759Z,3.93
2023-02-17T18:44:35.020Z,3.57
2023-02-17T18:47:02.767Z,2.67
2023-02-17T18:49:30.824Z,3.10
2023-02-17T18:51:58.671Z,2.90
2023-02-17T18:54:28.292Z,3.13
2023-02-17T18:56:56.163Z,3.00
2023-02-17T18:59:24.308Z,3.03
2023-02-17T19:01:52.246Z,2.27
2023-02-17T19:04:19.996Z,3.50
2023-02-17T19:06:47.926Z,2.47
2023-02-17T19:09:15.858Z,2.30
2023-02-17T19:11:45.094Z,2.03
2023-02-17T19:14:13.441Z,2.40
2023-02-17T19:16:41.349Z,1.73
2023-02-17T19:19:09.131Z,1.93
2023-02-17T19:21:36.962Z,2.20
2023-02-17T19:24:05.140Z,1.90
2023-02-17T19:26:34.166Z,2.10
2023-02-17T19:29:03.628Z,1.70
2023-02-17T19:31:31.664Z,1.97
2023-02-17T19:33:59.638Z,1.93
2023-02-17T19:36:27.701Z,1.67
2023-02-17T19:38:57.117Z,2.57
2023-02-17T19:41:25.284Z,1.70
2023-02-17T19:43:53.106Z,1.87
2023-02-17T19:46:24.319Z,1.80
2023-02-17T19:48:59.526Z,2.20
2023-02-17T19:51:27.521Z,2.00
2023-02-17T19:53:55.270Z,2.00
2023-02-17T19:56:44.026Z,2.00
2023-02-17T19:59:29.808Z,1.80
2023-02-17T20:01:59.091Z,1.93
2023-02-17T20:04:27.188Z,2.07
2023-02-17T20:06:55.179Z,2.20
2023-02-17T20:09:24.229Z,2.20
2023-02-17T20:11:53.521Z,1.97
2023-02-17T20:14:22.447Z,2.20
2023-02-17T20:16:53.165Z,2.43
2023-02-17T20:19:22.513Z,2.10
2023-02-17T20:21:50.396Z,1.77
2023-02-17T20:24:18.406Z,1.50
2023-02-17T20:26:47.562Z,2.00
2023-02-17T20:29:15.425Z,2.13
2023-02-17T20:31:43.806Z,2.03
2023-02-17T20:34:26.972Z,1.93
2023-02-17T20:36:55.032Z,2.53
2023-02-17T20:39:24.010Z,2.10
2023-02-17T20:41:52.083Z,2.13
2023-02-17T20:44:20.045Z,1.57
2023-02-17T20:46:48.189Z,3.00
2023-02-17T20:49:16.550Z,2.23
2023-02-17T20:51:46.395Z,2.77
2023-02-17T20:54:14.562Z,2.00
2023-02-17T20:56:46.168Z,3.17
2023-02-17T20:59:14.292Z,1.90
2023-02-17T21:01:43.140Z,2.20
2023-02-17T21:04:13.985Z,2.13
2023-02-17T21:06:43.052Z,2.43
2023-02-17T21:09:14.916Z,2.20
2023-02-17T21:11:43.037Z,2.20
2023-02-17T21:14:11.413Z,2.00
2023-02-17T21:16:39.863Z,3.00
2023-02-17T21:19:08.125Z,2.80
2023-02-17T21:21:36.434Z,2.07
2023-02-17T21:24:04.821Z,2.40
2023-02-17T21:26:34.888Z,2.33
2023-02-17T21:29:03.486Z,2.43
2023-02-17T21:31:32.000Z,3.40
2023-02-17T21:34:00.741Z,2.90
2023-02-17T21:36:29.478Z,3.30
2023-02-17T21:38:57.705Z,2.10
2023-02-17T21:41:30.385Z,2.30
2023-02-17T21:44:18.133Z,2.63
2023-02-17T21:46:46.571Z,2.37
2023-02-17T21:49:15.390Z,2.30
2023-02-17T21:51:43.243Z,2.17
2023-02-17T21:54:11.683Z,2.77
2023-02-17T21:56:39.566Z,1.83
2023-02-17T21:59:09.364Z,2.87
2023-02-17T22:01:37.385Z,2.70
2023-02-17T22:04:05.583Z,2.60
2023-02-17T22:06:35.527Z,3.20
2023-02-17T22:09:04.554Z,2.63
2023-02-17T22:11:34.851Z,2.80
2023-02-17T22:14:04.383Z,2.70
2023-02-17T22:16:36.643Z,2.57
2023-02-17T22:19:05.542Z,2.93
2023-02-17T22:21:33.697Z,2.63
2023-02-17T22:24:02.684Z,3.33
2023-02-17T22:26:31.442Z,3.00
2023-02-17T22:28:59.737Z,2.73
2023-02-17T22:31:29.931Z,2.87
2023-02-17T22:34:01.337Z,2.50
2023-02-17T22:36:31.937Z,2.70
2023-02-17T22:39:00.117Z,2.70
2023-02-17T22:41:28.112Z,2.60
2023-02-17T22:43:56.068Z,2.63
2023-02-17T22:46:26.993Z,2.67
2023-02-17T22:48:56.391Z,3.07
2023-02-17T22:51:28.007Z,2.67
2023-02-17T22:53:56.304Z,2.50
2023-02-17T22:56:24.960Z,2.80
2023-02-17T22:58:56.250Z,2.03
2023-02-17T23:01:25.490Z,2.83
2023-02-17T23:03:54.982Z,2.70
2023-02-17T23:06:26.542Z,2.67
2023-02-17T23:08:55.170Z,3.13
2023-02-17T23:11:39.820Z,2.60
2023-02-17T23:14:08.788Z,2.77
2023-02-17T23:16:36.766Z,2.63
2023-02-17T23:19:07.186Z,2.57
2023-02-17T23:21:37.268Z,2.40
2023-02-17T23:24:05.741Z,2.70
2023-02-17T23:26:33.719Z,2.63
2023-02-17T23:29:01.466Z,3.30
2023-02-17T23:31:29.753Z,2.43
2023-02-17T23:33:57.568Z,2.47
2023-02-17T23:36:25.428Z,1.80
2023-02-17T23:38:55.669Z,2.77
2023-02-17T23:41:23.626Z,3.20
2023-02-17T23:43:51.450Z,3.20
2023-02-17T23:46:20.516Z,2.60
2023-02-17T23:48:48.427Z,2.53
2023-02-17T23:51:17.824Z,2.80
2023-02-17T23:53:45.986Z,2.43
2023-02-17T23:56:19.489Z,3.33
2023-02-17T23:58:47.451Z,3.23
